createdAt,value
2022-12-15T00:00:08.093Z,89
2022-12-15T00:01:08.459Z,89
2022-12-15T00:02:07.787Z,89
2022-12-15T00:03:08.807Z,89
2022-12-15T00:04:07.988Z,89
2022-12-15T00:05:08.314Z,89
2022-12-15T00:06:07.697Z,89
2022-12-15T00:07:08.547Z,89
2022-12-15T00:08:07.544Z,89
2022-12-15T00:09:14.175Z,89
2022-12-15T00:10:08.426Z,89
2022-12-15T00:11:08.255Z,89
2022-12-15T00:12:07.678Z,89
2022-12-15T00:13:07.688Z,89
2022-12-15T00:15:07.851Z,89
2022-12-15T00:16:08.049Z,89
2022-12-15T00:17:08.299Z,89
2022-12-15T00:18:08.377Z,89
2022-12-15T00:19:07.684Z,89
2022-12-15T00:20:07.952Z,89
2022-12-15T00:21:08.264Z,89
2022-12-15T00:22:07.889Z,89
2022-12-15T00:23:08.362Z,89
2022-12-15T00:24:07.743Z,89
2022-12-15T00:25:08.152Z,89
2022-12-15T00:26:07.621Z,89
2022-12-15T00:27:07.586Z,89
2022-12-15T00:28:08.173Z,89
2022-12-15T00:29:07.001Z,89
2022-12-15T00:30:08.630Z,89
2022-12-15T00:31:09.423Z,89
2022-12-15T00:32:07.953Z,89
2022-12-15T00:33:07.993Z,89
2022-12-15T00:34:08.248Z,89
2022-12-15T00:35:07.123Z,89
2022-12-15T00:36:07.608Z,89
2022-12-15T00:37:07.635Z,89
2022-12-15T00:38:07.669Z,89
2022-12-15T00:39:10.300Z,89
2022-12-15T00:41:08.067Z,89
2022-12-15T00:42:08.515Z,89
2022-12-15T00:45:07.681Z,89
2022-12-15T00:46:08.224Z,89
2022-12-15T00:47:08.934Z,89
2022-12-15T00:48:07.945Z,89
2022-12-15T00:50:07.827Z,89
2022-12-15T00:51:08.296Z,89
2022-12-15T00:52:07.622Z,89
2022-12-15T00:53:08.320Z,89
2022-12-15T00:54:09.811Z,89
2022-12-15T00:55:08.311Z,89
2022-12-15T00:56:07.601Z,89
2022-12-15T00:57:08.319Z,89
2022-12-15T00:58:07.805Z,89
2022-12-15T00:59:07.608Z,89
2022-12-15T01:00:07.857Z,89
2022-12-15T01:01:06.947Z,89
2022-12-15T01:02:08.329Z,89
2022-12-15T01:03:09.282Z,89
2022-12-15T01:04:08.228Z,89
2022-12-15T01:05:07.901Z,89
2022-12-15T01:06:08.048Z,89
2022-12-15T01:07:08.547Z,89
2022-12-15T01:08:08.028Z,89
2022-12-15T01:09:07.590Z,89
2022-12-15T01:10:07.731Z,89
2022-12-15T01:11:07.935Z,89
2022-12-15T01:12:07.697Z,89
2022-12-15T01:13:08.140Z,89
2022-12-15T01:14:07.832Z,89
2022-12-15T01:15:08.438Z,89
2022-12-15T01:16:08.255Z,89
2022-12-15T01:17:07.869Z,89
2022-12-15T01:18:08.410Z,89
2022-12-15T01:19:07.936Z,89
2022-12-15T01:20:08.246Z,89
2022-12-15T01:21:08.551Z,89
2022-12-15T01:22:07.955Z,89
2022-12-15T01:23:08.399Z,89
2022-12-15T01:24:08.497Z,89
2022-12-15T01:25:08.196Z,89
2022-12-15T01:26:08.406Z,89
2022-12-15T01:27:07.950Z,89
2022-12-15T01:28:08.012Z,89
2022-12-15T01:29:08.525Z,89
2022-12-15T01:30:08.802Z,89
2022-12-15T01:31:08.139Z,89
2022-12-15T01:32:07.840Z,89
2022-12-15T01:33:07.876Z,89
2022-12-15T01:34:08.038Z,89
2022-12-15T01:35:08.458Z,89
2022-12-15T01:36:08.206Z,89
2022-12-15T01:37:08.081Z,89
2022-12-15T01:38:08.520Z,89
2022-12-15T01:39:07.956Z,89
2022-12-15T01:40:08.306Z,89
2022-12-15T01:41:07.965Z,89
2022-12-15T01:42:07.842Z,89
2022-12-15T01:43:08.321Z,89
2022-12-15T01:44:08.200Z,89
2022-12-15T01:46:07.955Z,89
2022-12-15T01:47:08.725Z,89
2022-12-15T01:49:08.080Z,89
2022-12-15T01:50:08.143Z,89
2022-12-15T01:51:07.605Z,89
2022-12-15T01:52:07.665Z,89
2022-12-15T01:53:07.604Z,89
2022-12-15T01:54:07.938Z,89
2022-12-15T01:57:08.417Z,89
2022-12-15T01:58:07.811Z,89
2022-12-15T01:59:07.978Z,90
2022-12-15T02:00:07.604Z,89
2022-12-15T02:01:08.418Z,89
2022-12-15T02:02:09.282Z,89
2022-12-15T02:03:08.689Z,89
2022-12-15T02:04:08.155Z,90
2022-12-15T02:05:08.042Z,90
2022-12-15T02:07:08.360Z,89
2022-12-15T02:08:08.205Z,89
2022-12-15T02:09:07.815Z,89
2022-12-15T02:10:08.409Z,89
2022-12-15T02:11:06.764Z,89
2022-12-15T02:12:08.283Z,89
2022-12-15T02:13:08.525Z,89
2022-12-15T02:14:07.878Z,89
2022-12-15T02:15:07.798Z,89
2022-12-15T02:16:08.522Z,89
2022-12-15T02:17:07.897Z,89
2022-12-15T02:18:07.905Z,89
2022-12-15T02:19:07.881Z,89
2022-12-15T02:20:08.241Z,89
2022-12-15T02:21:07.761Z,89
2022-12-15T02:22:07.813Z,89
2022-12-15T02:23:07.745Z,89
2022-12-15T02:24:07.565Z,89
2022-12-15T02:25:08.506Z,89
2022-12-15T02:26:07.891Z,89
2022-12-15T02:27:08.424Z,89
2022-12-15T02:28:08.057Z,89
2022-12-15T02:30:08.588Z,89
2022-12-15T02:31:07.716Z,89
2022-12-15T02:32:08.303Z,89
2022-12-15T02:33:08.502Z,89
2022-12-15T02:35:07.645Z,89
2022-12-15T02:36:08.082Z,89
2022-12-15T02:37:08.028Z,89
2022-12-15T02:38:08.501Z,89
2022-12-15T02:39:08.174Z,89
2022-12-15T02:40:08.292Z,89
2022-12-15T02:41:07.657Z,89
2022-12-15T02:42:07.820Z,89
2022-12-15T02:43:08.370Z,89
2022-12-15T02:44:08.091Z,89
2022-12-15T02:45:07.997Z,89
2022-12-15T02:46:07.948Z,89
2022-12-15T02:47:07.925Z,89
2022-12-15T02:48:08.426Z,89
2022-12-15T02:49:07.876Z,89
2022-12-15T02:50:07.817Z,89
2022-12-15T02:51:08.250Z,89
2022-12-15T02:52:07.751Z,89
2022-12-15T02:55:08.552Z,89
2022-12-15T02:56:08.415Z,89
2022-12-15T02:57:08.413Z,89
2022-12-15T02:58:07.565Z,89
2022-12-15T02:59:08.173Z,89
2022-12-15T03:00:07.664Z,89
2022-12-15T03:01:08.223Z,89
2022-12-15T03:02:09.047Z,89
2022-12-15T03:03:08.193Z,89
2022-12-15T03:05:08.402Z,89
2022-12-15T03:06:07.362Z,89
2022-12-15T03:07:07.917Z,89
2022-12-15T03:08:08.280Z,89
2022-12-15T03:09:07.901Z,89
2022-12-15T03:10:08.533Z,89
2022-12-15T03:11:07.941Z,89
2022-12-15T03:12:08.449Z,89
2022-12-15T03:13:07.953Z,89
2022-12-15T03:14:08.315Z,89
2022-12-15T03:15:07.857Z,89
2022-12-15T03:16:08.299Z,89
2022-12-15T03:17:08.394Z,89
2022-12-15T03:18:07.873Z,89
2022-12-15T03:19:08.297Z,89
2022-12-15T03:20:08.036Z,89
2022-12-15T03:21:08.646Z,89
2022-12-15T03:22:07.749Z,89
2022-12-15T03:23:08.192Z,89
2022-12-15T03:24:08.600Z,89
2022-12-15T03:25:07.906Z,89
2022-12-15T03:26:08.435Z,89
2022-12-15T03:27:08.276Z,89
2022-12-15T03:28:08.449Z,89
2022-12-15T03:29:08.475Z,89
2022-12-15T03:30:08.471Z,89
2022-12-15T03:31:07.719Z,89
2022-12-15T03:32:08.255Z,89
2022-12-15T03:33:08.099Z,89
2022-12-15T03:34:07.921Z,89
2022-12-15T03:35:08.358Z,89
2022-12-15T03:36:08.557Z,89
2022-12-15T03:37:08.146Z,89
2022-12-15T03:38:08.604Z,89
2022-12-15T03:39:08.057Z,89
2022-12-15T03:40:08.111Z,89
2022-12-15T03:41:08.310Z,89
2022-12-15T03:42:07.957Z,89
2022-12-15T03:43:08.271Z,89
2022-12-15T03:45:08.384Z,89
2022-12-15T03:46:08.378Z,89
2022-12-15T03:47:10.130Z,89
2022-12-15T03:49:07.494Z,89
2022-12-15T03:50:08.382Z,89
2022-12-15T03:52:08.278Z,89
2022-12-15T03:54:08.088Z,89
2022-12-15T03:55:07.623Z,89
2022-12-15T03:56:08.482Z,89
2022-12-15T03:57:06.976Z,89
2022-12-15T03:58:08.504Z,89
2022-12-15T03:59:07.758Z,89
2022-12-15T04:00:08.664Z,89
2022-12-15T04:01:08.800Z,89
2022-12-15T04:02:07.637Z,89
2022-12-15T04:04:08.729Z,89
2022-12-15T04:05:07.696Z,89
2022-12-15T04:06:08.206Z,89
2022-12-15T04:07:07.536Z,89
2022-12-15T04:08:08.271Z,89
2022-12-15T04:09:07.795Z,89
2022-12-15T04:10:08.484Z,89
2022-12-15T04:11:08.026Z,89
2022-12-15T04:12:08.289Z,89
2022-12-15T04:13:07.704Z,89
2022-12-15T04:14:08.460Z,89
2022-12-15T04:15:08.076Z,89
2022-12-15T04:16:07.613Z,89
2022-12-15T04:17:08.291Z,89
2022-12-15T04:18:08.588Z,89
2022-12-15T04:19:07.987Z,89
2022-12-15T04:20:08.467Z,89
2022-12-15T04:21:08.086Z,89
2022-12-15T04:22:07.905Z,89
2022-12-15T04:23:08.224Z,89
2022-12-15T04:24:07.662Z,89
2022-12-15T04:25:07.864Z,89
2022-12-15T04:26:07.622Z,89
2022-12-15T04:28:08.262Z,89
2022-12-15T04:29:08.586Z,89
2022-12-15T04:31:08.526Z,89
2022-12-15T04:32:07.586Z,89
2022-12-15T04:33:08.114Z,89
2022-12-15T04:34:08.425Z,89
2022-12-15T04:35:08.276Z,89
2022-12-15T04:36:07.751Z,89
2022-12-15T04:37:06.939Z,89
2022-12-15T04:38:08.225Z,89
2022-12-15T04:39:07.688Z,89
2022-12-15T04:40:08.146Z,89
2022-12-15T04:41:08.178Z,89
2022-12-15T04:42:07.658Z,89
2022-12-15T04:43:07.749Z,89
2022-12-15T04:44:08.438Z,89
2022-12-15T04:45:07.912Z,89
2022-12-15T04:46:08.720Z,89
2022-12-15T04:47:08.500Z,89
2022-12-15T04:48:07.952Z,89
2022-12-15T04:49:08.362Z,89
2022-12-15T04:50:07.890Z,89
2022-12-15T04:51:08.280Z,89
2022-12-15T04:52:07.797Z,89
2022-12-15T04:53:07.864Z,89
2022-12-15T04:54:08.547Z,89
2022-12-15T04:55:06.876Z,89
2022-12-15T04:56:08.848Z,89
2022-12-15T04:59:07.510Z,89
2022-12-15T05:00:08.074Z,89
2022-12-15T05:01:07.948Z,89
2022-12-15T05:02:09.260Z,89
2022-12-15T05:03:09.604Z,89
2022-12-15T05:05:07.495Z,89
2022-12-15T05:06:07.900Z,89
2022-12-15T05:07:07.490Z,89
2022-12-15T05:08:07.600Z,89
2022-12-15T05:09:07.035Z,89
2022-12-15T05:10:17.211Z,89
2022-12-15T05:11:07.691Z,89
2022-12-15T05:12:07.923Z,89
2022-12-15T05:13:08.088Z,89
2022-12-15T05:14:08.524Z,89
2022-12-15T05:15:08.076Z,89
2022-12-15T05:16:07.819Z,89
2022-12-15T05:17:08.340Z,89
2022-12-15T05:18:08.072Z,89
2022-12-15T05:19:08.437Z,89
2022-12-15T05:20:07.819Z,89
2022-12-15T05:21:08.368Z,89
2022-12-15T05:22:07.888Z,89
2022-12-15T05:23:08.369Z,89
2022-12-15T05:24:07.881Z,89
2022-12-15T05:26:08.037Z,89
2022-12-15T05:27:08.373Z,89
2022-12-15T05:28:07.789Z,89
2022-12-15T05:29:08.478Z,89
2022-12-15T05:31:08.405Z,89
2022-12-15T05:32:07.779Z,89
2022-12-15T05:33:07.865Z,89
2022-12-15T05:34:11.949Z,89
2022-12-15T05:35:07.834Z,89
2022-12-15T05:36:08.377Z,89
2022-12-15T05:37:08.046Z,89
2022-12-15T05:40:08.473Z,89
2022-12-15T05:41:07.888Z,89
2022-12-15T05:42:07.729Z,89
2022-12-15T05:43:08.203Z,89
2022-12-15T05:45:08.286Z,89
2022-12-15T05:46:07.394Z,89
2022-12-15T05:47:07.779Z,89
2022-12-15T05:50:07.667Z,89
2022-12-15T05:51:07.642Z,89
2022-12-15T05:52:08.241Z,89
2022-12-15T05:53:07.163Z,89
2022-12-15T05:54:08.417Z,89
2022-12-15T05:55:08.345Z,89
2022-12-15T05:58:07.948Z,89
2022-12-15T05:59:08.454Z,89
2022-12-15T06:00:08.011Z,89
2022-12-15T06:04:07.954Z,89
2022-12-15T06:05:08.118Z,89
2022-12-15T06:06:08.309Z,89
2022-12-15T06:07:07.920Z,89
2022-12-15T06:08:08.326Z,89
2022-12-15T06:09:08.005Z,89
2022-12-15T06:10:07.867Z,89
2022-12-15T06:11:07.691Z,89
2022-12-15T06:12:07.800Z,89
2022-12-15T06:14:07.867Z,89
2022-12-15T06:15:08.309Z,89
2022-12-15T06:16:08.303Z,89
2022-12-15T06:17:08.033Z,89
2022-12-15T06:18:08.338Z,89
2022-12-15T06:19:07.984Z,89
2022-12-15T06:20:07.759Z,89
2022-12-15T06:21:08.389Z,89
2022-12-15T06:22:07.768Z,89
2022-12-15T06:23:08.204Z,89
2022-12-15T06:24:08.183Z,89
2022-12-15T06:25:07.710Z,89
2022-12-15T06:26:08.081Z,89
2022-12-15T06:27:07.089Z,89
2022-12-15T06:29:08.029Z,89
2022-12-15T06:30:07.501Z,89
2022-12-15T06:31:08.452Z,89
2022-12-15T06:32:07.716Z,89
2022-12-15T06:33:08.214Z,89
2022-12-15T06:34:08.831Z,89
2022-12-15T06:35:08.133Z,89
2022-12-15T06:37:08.393Z,89
2022-12-15T06:38:07.696Z,89
2022-12-15T06:39:08.084Z,89
2022-12-15T06:40:07.925Z,89
2022-12-15T06:41:08.142Z,89
2022-12-15T06:42:08.348Z,89
2022-12-15T06:43:07.714Z,89
2022-12-15T06:44:08.298Z,89
2022-12-15T06:45:07.864Z,89
2022-12-15T06:46:07.754Z,89
2022-12-15T06:49:08.582Z,89
2022-12-15T06:50:08.048Z,89
2022-12-15T06:51:10.863Z,89
2022-12-15T06:52:08.481Z,89
2022-12-15T06:53:07.908Z,89
2022-12-15T06:54:08.543Z,89
2022-12-15T06:55:08.171Z,89
2022-12-15T06:56:08.281Z,89
2022-12-15T06:58:08.140Z,89
2022-12-15T07:00:08.371Z,89
2022-12-15T07:01:07.739Z,89
2022-12-15T07:02:09.131Z,89
2022-12-15T07:03:09.188Z,89
2022-12-15T07:04:09.360Z,89
2022-12-15T07:05:08.186Z,89
2022-12-15T07:06:08.043Z,89
2022-12-15T07:07:08.324Z,89
2022-12-15T07:08:07.837Z,89
2022-12-15T07:09:08.526Z,89
2022-12-15T07:10:08.073Z,89
2022-12-15T07:11:08.320Z,89
2022-12-15T07:12:07.866Z,89
2022-12-15T07:13:08.521Z,89
2022-12-15T07:14:08.060Z,89
2022-12-15T07:15:07.067Z,89
2022-12-15T07:16:08.952Z,89
2022-12-15T07:17:08.074Z,89
2022-12-15T07:18:07.709Z,89
2022-12-15T07:19:07.874Z,89
2022-12-15T07:20:08.283Z,89
2022-12-15T07:21:07.763Z,89
2022-12-15T07:22:07.778Z,89
2022-12-15T07:24:10.592Z,89
2022-12-15T07:25:08.063Z,89
2022-12-15T07:26:16.031Z,89
2022-12-15T07:29:07.751Z,89
2022-12-15T07:30:08.110Z,89
2022-12-15T07:31:08.230Z,89
2022-12-15T07:32:08.739Z,89
2022-12-15T07:33:08.080Z,89
2022-12-15T07:34:07.939Z,89
2022-12-15T07:35:08.492Z,89
2022-12-15T07:36:08.075Z,89
2022-12-15T07:38:08.581Z,89
2022-12-15T07:39:08.967Z,89
2022-12-15T07:40:08.215Z,89
2022-12-15T07:41:07.614Z,89
2022-12-15T07:42:08.127Z,89
2022-12-15T07:43:07.707Z,89
2022-12-15T07:44:07.722Z,89
2022-12-15T07:45:08.092Z,89
2022-12-15T07:47:07.998Z,89
2022-12-15T07:48:07.651Z,89
2022-12-15T07:49:08.296Z,89
2022-12-15T07:50:07.942Z,89
2022-12-15T07:51:23.642Z,89
2022-12-15T07:52:08.071Z,89
2022-12-15T07:53:07.652Z,89
2022-12-15T07:55:08.453Z,89
2022-12-15T07:56:16.511Z,89
2022-12-15T07:57:08.294Z,89
2022-12-15T07:58:07.716Z,89
2022-12-15T07:59:07.953Z,89
2022-12-15T08:00:08.414Z,89
2022-12-15T08:01:08.268Z,89
2022-12-15T08:02:09.234Z,89
2022-12-15T08:03:08.176Z,89
2022-12-15T08:04:08.491Z,89
2022-12-15T08:06:10.630Z,89
2022-12-15T08:07:08.250Z,89
2022-12-15T08:08:13.749Z,89
2022-12-15T08:09:08.072Z,89
2022-12-15T08:11:06.715Z,88
2022-12-15T08:12:07.882Z,88
2022-12-15T08:13:06.713Z,88
2022-12-15T08:14:20.768Z,88
2022-12-15T08:15:07.803Z,88
2022-12-15T08:16:08.767Z,88
2022-12-15T08:17:08.816Z,88
2022-12-15T08:18:08.075Z,88
2022-12-15T08:19:08.210Z,88
2022-12-15T08:20:14.512Z,88
2022-12-15T08:21:08.088Z,88
2022-12-15T08:22:08.167Z,88
2022-12-15T08:23:08.162Z,88
2022-12-15T08:26:08.408Z,88
2022-12-15T08:27:08.177Z,88
2022-12-15T08:28:07.841Z,88
2022-12-15T08:29:55.355Z,88
2022-12-15T08:31:08.454Z,88
2022-12-15T08:32:08.952Z,88
2022-12-15T08:33:08.315Z,88
2022-12-15T08:35:47.296Z,88
2022-12-15T08:38:12.013Z,88
2022-12-15T08:39:08.123Z,88
2022-12-15T08:40:08.242Z,88
2022-12-15T08:41:07.827Z,88
2022-12-15T08:42:07.670Z,88
2022-12-15T08:43:07.672Z,88
2022-12-15T08:44:08.162Z,88
2022-12-15T08:45:08.619Z,88
2022-12-15T08:46:08.721Z,88
2022-12-15T08:47:07.833Z,88
2022-12-15T08:48:08.071Z,88
2022-12-15T08:50:07.861Z,88
2022-12-15T08:51:08.410Z,88
2022-12-15T08:52:07.847Z,88
2022-12-15T08:53:36.791Z,88
2022-12-15T08:55:07.579Z,88
2022-12-15T08:56:08.211Z,88
2022-12-15T08:58:07.051Z,88
2022-12-15T08:59:07.729Z,88
2022-12-15T09:00:07.022Z,88
2022-12-15T09:01:08.791Z,88
2022-12-15T09:03:08.279Z,88
2022-12-15T09:04:08.167Z,88
2022-12-15T09:05:08.163Z,88
2022-12-15T09:06:07.807Z,88
2022-12-15T09:07:08.240Z,88
2022-12-15T09:10:08.393Z,88
2022-12-15T09:11:07.796Z,87
2022-12-15T09:12:08.437Z,87
2022-12-15T09:13:08.602Z,87
2022-12-15T09:14:08.009Z,87
2022-12-15T09:15:08.075Z,87
2022-12-15T09:19:08.543Z,87
2022-12-15T09:20:07.334Z,87
2022-12-15T09:21:07.281Z,87
2022-12-15T09:22:06.833Z,88
2022-12-15T09:23:08.313Z,88
2022-12-15T09:24:07.271Z,88
2022-12-15T09:25:08.162Z,88
2022-12-15T09:26:08.599Z,88
2022-12-15T09:27:08.155Z,88
2022-12-15T09:28:08.611Z,87
2022-12-15T09:29:08.073Z,87
2022-12-15T09:30:08.534Z,87
2022-12-15T09:31:08.718Z,87
2022-12-15T09:32:15.936Z,87
2022-12-15T09:33:08.100Z,87
2022-12-15T09:34:07.576Z,87
2022-12-15T09:35:08.082Z,87
2022-12-15T09:36:08.071Z,87
2022-12-15T09:37:07.011Z,86
2022-12-15T09:38:08.495Z,86
2022-12-15T09:39:08.465Z,86
2022-12-15T09:40:07.935Z,86
2022-12-15T09:41:08.150Z,86
2022-12-15T09:42:07.730Z,86
2022-12-15T09:43:49.623Z,86
2022-12-15T09:45:07.870Z,86
2022-12-15T09:46:08.341Z,86
2022-12-15T09:47:08.112Z,86
2022-12-15T09:48:08.611Z,86
2022-12-15T09:49:08.094Z,86
2022-12-15T09:50:08.494Z,86
2022-12-15T09:51:08.103Z,86
2022-12-15T09:52:15.423Z,86
2022-12-15T09:54:10.213Z,86
2022-12-15T09:55:08.458Z,86
2022-12-15T09:56:08.310Z,85
2022-12-15T09:58:15.545Z,85
2022-12-15T09:59:08.318Z,85
2022-12-15T10:00:07.874Z,85
2022-12-15T10:01:07.736Z,85
2022-12-15T10:02:09.129Z,85
2022-12-15T10:03:08.794Z,85
2022-12-15T10:04:08.884Z,85
2022-12-15T10:05:08.475Z,85
2022-12-15T10:06:35.602Z,85
2022-12-15T10:07:08.332Z,85
2022-12-15T10:08:07.828Z,85
2022-12-15T10:09:07.927Z,85
2022-12-15T10:10:07.866Z,85
2022-12-15T10:11:07.142Z,85
2022-12-15T10:12:08.542Z,85
2022-12-15T10:13:09.085Z,85
2022-12-15T10:14:08.453Z,85
2022-12-15T10:15:07.801Z,85
2022-12-15T10:17:08.534Z,85
2022-12-15T10:18:07.936Z,85
2022-12-15T10:19:08.405Z,85
2022-12-15T10:20:07.873Z,85
2022-12-15T10:21:07.814Z,85
2022-12-15T10:22:08.620Z,85
2022-12-15T10:23:07.932Z,85
2022-12-15T10:24:08.559Z,85
2022-12-15T10:25:16.732Z,85
2022-12-15T10:26:08.414Z,85
2022-12-15T10:29:07.779Z,85
2022-12-15T10:30:08.716Z,85
2022-12-15T10:31:08.295Z,85
2022-12-15T10:32:08.459Z,85
2022-12-15T10:33:08.195Z,85
2022-12-15T10:34:07.722Z,85
2022-12-15T10:35:08.250Z,85
2022-12-15T10:36:08.392Z,85
2022-12-15T10:37:07.854Z,85
2022-12-15T10:38:07.900Z,85
2022-12-15T10:39:11.596Z,85
2022-12-15T10:40:08.081Z,85
2022-12-15T10:41:07.838Z,85
2022-12-15T10:42:07.153Z,85
2022-12-15T10:43:08.083Z,85
2022-12-15T10:44:07.656Z,85
2022-12-15T10:45:08.261Z,85
2022-12-15T10:46:08.332Z,85
2022-12-15T10:47:08.290Z,85
2022-12-15T10:48:08.012Z,85
2022-12-15T10:49:08.473Z,85
2022-12-15T10:50:08.062Z,84
2022-12-15T10:51:07.590Z,84
2022-12-15T10:52:08.060Z,84
2022-12-15T10:53:06.919Z,84
2022-12-15T10:54:07.909Z,84
2022-12-15T10:55:07.833Z,85
2022-12-15T10:56:08.285Z,85
2022-12-15T10:57:08.234Z,85
2022-12-15T10:58:08.266Z,84
2022-12-15T10:59:08.497Z,84
2022-12-15T11:00:07.865Z,84
2022-12-15T11:01:08.853Z,84
2022-12-15T11:02:09.138Z,84
2022-12-15T11:03:09.159Z,84
2022-12-15T11:04:08.816Z,84
2022-12-15T11:05:07.627Z,84
2022-12-15T11:06:07.916Z,84
2022-12-15T11:07:08.241Z,84
2022-12-15T11:08:14.509Z,84
2022-12-15T11:09:08.160Z,84
2022-12-15T11:10:08.104Z,84
2022-12-15T11:11:11.624Z,84
2022-12-15T11:13:08.221Z,84
2022-12-15T11:14:07.683Z,84
2022-12-15T11:15:08.223Z,84
2022-12-15T11:16:08.397Z,84
2022-12-15T11:17:08.061Z,84
2022-12-15T11:20:09.742Z,84
2022-12-15T11:21:07.751Z,84
2022-12-15T11:23:07.775Z,84
2022-12-15T11:24:08.579Z,84
2022-12-15T11:25:08.009Z,84
2022-12-15T11:27:08.046Z,84
2022-12-15T11:28:07.543Z,84
2022-12-15T11:29:07.934Z,84
2022-12-15T11:30:07.725Z,84
2022-12-15T11:31:07.697Z,83
2022-12-15T11:32:13.582Z,83
2022-12-15T11:33:08.639Z,83
2022-12-15T11:34:08.422Z,83
2022-12-15T11:35:08.580Z,83
2022-12-15T11:36:08.202Z,83
2022-12-15T11:37:07.754Z,83
2022-12-15T11:38:08.307Z,83
2022-12-15T11:39:08.233Z,83
2022-12-15T11:40:07.868Z,83
2022-12-15T11:41:07.090Z,83
2022-12-15T11:42:08.041Z,83
2022-12-15T11:43:08.402Z,83
2022-12-15T11:45:08.061Z,83
2022-12-15T11:46:08.643Z,83
2022-12-15T11:47:07.650Z,83
2022-12-15T11:48:08.227Z,83
2022-12-15T11:49:08.180Z,83
2022-12-15T11:50:08.075Z,83
2022-12-15T11:51:07.634Z,83
2022-12-15T11:52:07.015Z,83
2022-12-15T11:53:07.725Z,83
2022-12-15T11:54:08.227Z,83
2022-12-15T11:55:08.134Z,83
2022-12-15T11:56:08.470Z,83
2022-12-15T11:57:08.135Z,83
2022-12-15T11:58:08.158Z,83
2022-12-15T11:59:08.229Z,83
2022-12-15T12:00:07.835Z,83
2022-12-15T12:01:07.705Z,83
2022-12-15T12:02:10.078Z,83
2022-12-15T12:03:08.924Z,83
2022-12-15T12:04:07.891Z,83
2022-12-15T12:05:08.152Z,83
2022-12-15T12:06:07.764Z,83
2022-12-15T12:07:08.272Z,83
2022-12-15T12:08:08.172Z,83
2022-12-15T12:09:08.577Z,83
2022-12-15T12:10:07.714Z,83
2022-12-15T12:11:08.634Z,83
2022-12-15T12:12:08.553Z,83
2022-12-15T12:13:08.199Z,83
2022-12-15T12:14:15.400Z,83
2022-12-15T12:15:07.996Z,83
2022-12-15T12:18:07.781Z,83
2022-12-15T12:19:08.121Z,83
2022-12-15T12:20:15.787Z,83
2022-12-15T12:21:08.227Z,83
2022-12-15T12:22:08.062Z,83
2022-12-15T12:23:08.210Z,83
2022-12-15T12:24:08.086Z,83
2022-12-15T12:26:09.778Z,83
2022-12-15T12:27:08.065Z,83
2022-12-15T12:28:08.622Z,83
2022-12-15T12:29:06.764Z,83
2022-12-15T12:30:08.197Z,83
2022-12-15T12:31:08.234Z,83
2022-12-15T12:32:11.340Z,83
2022-12-15T12:33:06.775Z,83
2022-12-15T12:34:08.461Z,83
2022-12-15T12:36:08.472Z,83
2022-12-15T12:37:08.063Z,83
2022-12-15T12:38:10.480Z,83
2022-12-15T12:39:07.703Z,83
2022-12-15T12:40:08.104Z,83
2022-12-15T12:41:08.513Z,83
2022-12-15T12:42:07.562Z,83
2022-12-15T12:43:15.981Z,83
2022-12-15T12:44:08.500Z,83
2022-12-15T12:45:08.327Z,83
2022-12-15T12:46:08.159Z,83
2022-12-15T12:47:08.449Z,83
2022-12-15T12:48:07.607Z,83
2022-12-15T12:49:07.947Z,83
2022-12-15T12:50:08.284Z,83
2022-12-15T12:53:08.492Z,83
2022-12-15T12:54:07.844Z,83
2022-12-15T12:55:16.738Z,83
2022-12-15T12:56:08.361Z,83
2022-12-15T12:57:08.117Z,83
2022-12-15T12:58:08.446Z,83
2022-12-15T12:59:08.155Z,83
2022-12-15T13:00:07.782Z,84
2022-12-15T13:01:08.762Z,84
2022-12-15T13:02:08.175Z,84
2022-12-15T13:03:08.613Z,84
2022-12-15T13:04:08.160Z,84
2022-12-15T13:05:08.601Z,84
2022-12-15T13:06:08.162Z,83
2022-12-15T13:07:13.044Z,84
2022-12-15T13:08:07.847Z,84
2022-12-15T13:11:08.134Z,84
2022-12-15T13:13:01.854Z,84
2022-12-15T13:14:16.348Z,84
2022-12-15T13:15:08.041Z,84
2022-12-15T13:17:32.532Z,84
2022-12-15T13:18:08.433Z,84
2022-12-15T13:19:07.925Z,84
2022-12-15T13:20:08.169Z,84
2022-12-15T13:21:08.377Z,84
2022-12-15T13:24:07.684Z,84
2022-12-15T13:25:08.192Z,84
2022-12-15T13:26:07.652Z,84
2022-12-15T13:27:08.176Z,84
2022-12-15T13:28:07.681Z,84
2022-12-15T13:30:07.772Z,84
2022-12-15T13:31:13.008Z,84
2022-12-15T13:32:08.310Z,84
2022-12-15T13:33:08.391Z,84
2022-12-15T13:34:07.593Z,84
2022-12-15T13:35:07.696Z,84
2022-12-15T13:36:08.234Z,84
2022-12-15T13:37:07.846Z,84
2022-12-15T13:38:07.808Z,84
2022-12-15T13:41:08.418Z,84
2022-12-15T13:43:08.005Z,84
2022-12-15T13:44:08.411Z,84
2022-12-15T13:45:07.965Z,84
2022-12-15T13:46:08.741Z,84
2022-12-15T13:47:08.613Z,84
2022-12-15T13:48:06.704Z,84
2022-12-15T13:49:08.102Z,85
2022-12-15T13:50:09.047Z,84
2022-12-15T13:51:07.651Z,84
2022-12-15T13:52:07.801Z,84
2022-12-15T13:53:38.822Z,85
2022-12-15T13:55:07.939Z,84
2022-12-15T13:56:08.465Z,85
2022-12-15T13:57:07.948Z,85
2022-12-15T13:58:07.887Z,85
2022-12-15T13:59:07.463Z,85
2022-12-15T14:00:07.938Z,85
2022-12-15T14:01:08.111Z,85
2022-12-15T14:02:08.125Z,85
2022-12-15T14:03:07.629Z,85
2022-12-15T14:04:08.141Z,85
2022-12-15T14:05:08.405Z,85
2022-12-15T14:06:08.231Z,85
2022-12-15T14:08:07.792Z,85
2022-12-15T14:09:08.276Z,85
2022-12-15T14:10:07.827Z,85
2022-12-15T14:12:07.998Z,85
2022-12-15T14:16:08.759Z,85
2022-12-15T14:17:08.191Z,85
2022-12-15T14:18:08.341Z,85
2022-12-15T14:19:07.922Z,85
2022-12-15T14:21:08.430Z,85
2022-12-15T14:22:08.359Z,85
2022-12-15T14:23:07.870Z,85
2022-12-15T14:24:44.850Z,85
2022-12-15T14:26:07.613Z,85
2022-12-15T14:27:08.130Z,85
2022-12-15T14:28:14.752Z,85
2022-12-15T14:29:08.241Z,85
2022-12-15T14:30:08.401Z,85
2022-12-15T14:31:07.899Z,85
2022-12-15T14:32:08.816Z,85
2022-12-15T14:33:07.923Z,85
2022-12-15T14:34:08.307Z,85
2022-12-15T14:35:07.901Z,85
2022-12-15T14:36:07.979Z,85
2022-12-15T14:39:08.258Z,85
2022-12-15T14:40:08.309Z,85
2022-12-15T14:41:07.733Z,85
2022-12-15T14:42:08.235Z,85
2022-12-15T14:43:07.795Z,85
2022-12-15T14:45:07.721Z,85
2022-12-15T14:46:08.410Z,85
2022-12-15T14:47:07.618Z,85
2022-12-15T14:49:10.951Z,85
2022-12-15T14:51:07.640Z,85
2022-12-15T14:52:07.788Z,85
2022-12-15T14:53:08.468Z,85
2022-12-15T14:54:06.573Z,85
2022-12-15T14:55:08.045Z,85
2022-12-15T14:56:08.479Z,85
2022-12-15T14:57:07.921Z,85
2022-12-15T14:58:10.065Z,85
2022-12-15T14:59:08.072Z,86
2022-12-15T15:00:08.331Z,85
2022-12-15T15:04:08.221Z,86
2022-12-15T15:05:07.696Z,86
2022-12-15T15:06:08.401Z,86
2022-12-15T15:07:07.973Z,86
2022-12-15T15:08:08.529Z,86
2022-12-15T15:09:08.053Z,86
2022-12-15T15:10:08.548Z,86
2022-12-15T15:11:08.035Z,86
2022-12-15T15:12:08.528Z,86
2022-12-15T15:13:08.074Z,86
2022-12-15T15:14:07.686Z,86
2022-12-15T15:15:08.085Z,86
2022-12-15T15:16:07.829Z,86
2022-12-15T15:17:08.515Z,86
2022-12-15T15:18:08.561Z,86
2022-12-15T15:19:06.787Z,86
2022-12-15T15:20:06.658Z,86
2022-12-15T15:21:08.789Z,86
2022-12-15T15:22:08.079Z,86
2022-12-15T15:23:07.655Z,86
2022-12-15T15:24:08.127Z,86
2022-12-15T15:25:07.626Z,86
2022-12-15T15:26:08.115Z,86
2022-12-15T15:27:08.913Z,86
2022-12-15T15:28:08.058Z,86
2022-12-15T15:29:07.614Z,86
2022-12-15T15:30:08.329Z,86
2022-12-15T15:31:08.551Z,86
2022-12-15T15:34:09.248Z,86
2022-12-15T15:35:08.372Z,86
2022-12-15T15:36:07.903Z,86
2022-12-15T15:37:09.189Z,86
2022-12-15T15:38:06.876Z,86
2022-12-15T15:39:08.485Z,86
2022-12-15T15:40:07.928Z,87
2022-12-15T15:41:08.337Z,87
2022-12-15T15:42:07.934Z,87
2022-12-15T15:43:08.523Z,87
2022-12-15T15:44:06.918Z,87
2022-12-15T15:45:08.091Z,87
2022-12-15T15:46:08.197Z,87
2022-12-15T15:47:08.395Z,87
2022-12-15T15:48:08.004Z,87
2022-12-15T15:49:08.605Z,87
2022-12-15T15:50:08.057Z,87
2022-12-15T15:51:08.511Z,87
2022-12-15T15:52:08.102Z,87
2022-12-15T15:53:08.594Z,87
2022-12-15T15:54:08.058Z,87
2022-12-15T15:55:07.645Z,87
2022-12-15T15:57:08.676Z,87
2022-12-15T15:58:08.051Z,87
2022-12-15T15:59:07.613Z,87
2022-12-15T16:00:08.100Z,86
2022-12-15T16:01:15.759Z,86
2022-12-15T16:02:09.296Z,86
2022-12-15T16:03:09.076Z,86
2022-12-15T16:04:08.918Z,86
2022-12-15T16:05:08.061Z,86
2022-12-15T16:06:08.608Z,86
2022-12-15T16:07:08.131Z,86
2022-12-15T16:08:07.637Z,87
2022-12-15T16:09:08.224Z,87